Main page
METAR-TAF:

METAR-TAF

Airports :

Gratiot Community Airport

Alma, Michigan, United States

latitude: 43-19-19N, longitude: 084-41-16W, elevation: 229 m

Current weather observation

The report was made 23 minutes ago, at 18:35 UTC
Wind 7 kt from the East
Temperature 27°C
Humidity 62%
Pressure 1026 hPa
Visibility: 16.1 km
Scattered clouds at a height of 9000 ft

METAR: KAMN 201835Z AUTO 08007KT 10SM SCT090 27/19 A3030 RMK AO2 T02660186

Time: 14:58 (18:58 UTC)


TAF: missing

Weather observations and forecasts of more than 4000 airports (METAR and TAF reports).

The available stations are represented by yellow and red dots on the map.

Hover mouse over dot to see the name of the station.

Then click to see weather observations and forecasts.

To change the map : click on the green buttons with a black cross to zoom in, on the green button with a dash to zoom out, or on the green arrows for adjacent maps.


METAR-TAF: